Time;durP1;ratioP1;P1;durP2;ratioP2;P2;SDS_P1;SDS_P2;PMS_P1;PMS_P2;Temp;Humidity;BMP_temperature;BMP_pressure;BME280_temperature;BME280_humidity;BME280_pressure;Samples;Min_cycle;Max_cycle;Signal;HPM_P1;HPM_P2
2022/10/04 00:01:45;;;;;;;13.13;5.93;;;12.60;99.90;;;;;;5009454;28;20073;-78
2022/10/04 00:04:17;;;;;;;13.10;6.10;;;12.60;99.90;;;;;;5014804;28;20049;-77
2022/10/04 00:06:45;;;;;;;12.43;5.85;;;12.60;99.90;;;;;;4990464;28;20046;-77
2022/10/04 00:09:15;;;;;;;12.20;6.28;;;12.60;99.90;;;;;;4995754;28;20049;-77
2022/10/04 00:11:44;;;;;;;12.57;6.22;;;12.60;99.90;;;;;;5008601;28;20060;-77
2022/10/04 00:14:17;;;;;;;11.02;5.85;;;12.60;99.90;;;;;;5006533;28;20557;-77
2022/10/04 00:16:44;;;;;;;11.38;5.88;;;12.60;99.90;;;;;;5004309;28;20057;-77
2022/10/04 00:19:25;;;;;;;13.40;5.95;;;12.60;99.90;;;;;;5012289;28;20042;-77
2022/10/04 00:22:16;;;;;;;17.50;6.15;;;12.70;99.90;;;;;;5017347;28;20041;-77
2022/10/04 00:25:16;;;;;;;12.63;6.03;;;12.70;99.90;;;;;;5003438;28;20041;-77
2022/10/04 00:28:16;;;;;;;11.70;5.65;;;12.70;99.90;;;;;;5010978;28;20087;-77
2022/10/04 00:30:43;;;;;;;12.43;6.07;;;12.70;99.90;;;;;;4993636;28;20042;-77
2022/10/04 00:33:10;;;;;;;11.32;5.90;;;12.70;99.90;;;;;;5003364;28;20467;-77
2022/10/04 00:35:50;;;;;;;13.93;6.35;;;12.70;99.90;;;;;;5012895;28;20048;-77
2022/10/04 00:38:26;;;;;;;10.02;5.78;;;12.70;99.90;;;;;;5012986;28;20042;-77
2022/10/04 00:40:57;;;;;;;12.68;5.70;;;12.90;99.90;;;;;;4993380;28;20414;-77
2022/10/04 00:43:27;;;;;;;13.52;5.97;;;12.70;99.90;;;;;;5003897;28;20042;-77
2022/10/04 00:45:56;;;;;;;11.20;5.40;;;12.70;99.90;;;;;;5012434;28;20506;-76
2022/10/04 00:48:34;;;;;;;9.70;5.13;;;12.70;99.90;;;;;;5012863;28;20042;-77
2022/10/04 00:51:18;;;;;;;15.25;5.82;;;12.60;99.90;;;;;;5013070;28;20104;-77
2022/10/04 00:53:53;;;;;;;11.05;5.18;;;12.60;99.90;;;;;;5013505;28;20388;-77
2022/10/04 00:56:26;;;;;;;13.13;5.75;;;12.60;99.90;;;;;;5002722;28;20038;-77
2022/10/04 00:59:26;;;;;;;11.73;5.60;;;12.60;99.90;;;;;;5009050;28;20068;-77
2022/10/04 01:01:56;;;;;;;15.15;5.50;;;12.60;99.90;;;;;;5008618;28;20060;-77
2022/10/04 01:04:29;;;;;;;18.55;6.30;;;12.60;99.90;;;;;;5010161;28;20041;-77
2022/10/04 01:06:59;;;;;;;9.77;5.30;;;12.60;99.90;;;;;;5012450;28;20065;-77
2022/10/04 01:09:27;;;;;;;10.47;5.57;;;12.60;99.90;;;;;;5012653;28;20426;-77
2022/10/04 01:12:00;;;;;;;10.70;5.57;;;12.60;99.90;;;;;;5010725;28;20056;-77
2022/10/04 01:14:31;;;;;;;10.20;5.63;;;12.60;99.90;;;;;;5005402;28;20038;-77
2022/10/04 01:16:58;;;;;;;8.65;5.32;;;12.60;99.90;;;;;;5012577;28;20054;-77
2022/10/04 01:19:30;;;;;;;13.85;5.68;;;12.50;99.90;;;;;;5012202;28;20041;-77
2022/10/04 01:22:08;;;;;;;9.65;5.22;;;12.70;99.90;;;;;;5011767;28;20518;-77
2022/10/04 01:24:38;;;;;;;11.68;5.40;;;12.50;99.90;;;;;;5011894;28;20489;-77
2022/10/04 01:27:37;;;;;;;14.38;5.38;;;12.50;99.90;;;;;;5012401;28;20052;-77
2022/10/04 01:30:08;;;;;;;11.52;5.07;;;12.50;99.90;;;;;;5006693;28;20046;-77
2022/10/04 01:32:35;;;;;;;9.50;5.47;;;12.50;99.90;;;;;;4998437;28;20465;-77
2022/10/04 01:35:02;;;;;;;13.43;5.18;;;12.50;99.90;;;;;;5011153;28;20045;-77
2022/10/04 01:37:29;;;;;;;11.57;5.55;;;12.50;99.90;;;;;;5011880;28;20048;-77
2022/10/04 01:39:56;;;;;;;8.73;5.43;;;12.50;99.90;;;;;;5011245;28;20050;-77
2022/10/04 01:42:27;;;;;;;14.80;6.00;;;12.50;99.90;;;;;;5011252;28;20137;-77
2022/10/04 01:44:59;;;;;;;12.10;5.53;;;12.50;99.90;;;;;;5011434;28;20239;-77
2022/10/04 01:47:31;;;;;;;12.48;5.13;;;12.50;99.90;;;;;;5003878;28;20085;-77
2022/10/04 01:50:01;;;;;;;13.18;5.65;;;12.50;99.90;;;;;;4992274;28;20054;-77
2022/10/04 01:52:33;;;;;;;9.32;5.25;;;12.50;99.90;;;;;;4997143;28;20053;-77
2022/10/04 01:55:02;;;;;;;14.48;5.75;;;12.50;99.90;;;;;;5011346;28;20050;-77
2022/10/04 01:57:34;;;;;;;11.25;5.90;;;12.50;99.90;;;;;;5011588;28;20042;-77
2022/10/04 02:00:05;;;;;;;9.52;5.03;;;12.50;99.90;;;;;;5011604;28;20057;-77
2022/10/04 02:02:35;;;;;;;10.80;5.25;;;12.40;99.90;;;;;;5010907;28;20042;-77
2022/10/04 02:05:05;;;;;;;14.73;6.30;;;12.40;99.90;;;;;;4997656;28;20038;-77
2022/10/04 02:07:32;;;;;;;12.80;5.60;;;12.40;99.90;;;;;;4992012;28;20050;-77
2022/10/04 02:10:03;;;;;;;12.57;5.72;;;12.40;99.90;;;;;;4991890;28;20116;-77
2022/10/04 02:12:31;;;;;;;13.50;5.40;;;12.40;99.90;;;;;;4990140;28;20042;-77
2022/10/04 02:15:00;;;;;;;11.02;5.50;;;12.40;99.90;;;;;;5007425;28;20046;-77
2022/10/04 02:17:31;;;;;;;10.15;5.25;;;12.40;99.90;;;;;;5011278;28;20042;-77
2022/10/04 02:20:01;;;;;;;9.83;5.33;;;12.40;99.90;;;;;;5011244;28;20139;-77
2022/10/04 02:22:28;;;;;;;9.23;4.93;;;12.40;99.90;;;;;;5019925;28;20141;-77
2022/10/04 02:24:56;;;;;;;14.57;5.80;;;12.40;99.90;;;;;;5006107;28;20046;-77
2022/10/04 02:27:26;;;;;;;12.07;5.28;;;12.40;99.90;;;;;;5008542;28;20049;-77
2022/10/04 02:30:00;;;;;;;9.50;5.53;;;12.40;99.90;;;;;;5009541;28;20041;-77
2022/10/04 02:35:17;;;;;;;11.07;5.53;;;12.40;99.90;;;;;;5007675;28;20541;-78
2022/10/04 02:37:44;;;;;;;8.95;5.43;;;12.40;99.90;;;;;;5021046;28;20527;-77
2022/10/04 02:40:13;;;;;;;9.02;5.57;;;12.40;99.90;;;;;;5017796;28;20041;-77
2022/10/04 02:42:46;;;;;;;11.45;5.90;;;12.40;99.90;;;;;;5018343;28;20048;-77
2022/10/04 02:45:19;;;;;;;10.63;5.63;;;12.40;99.90;;;;;;5008939;28;20041;-77
2022/10/04 02:47:57;;;;;;;11.05;5.82;;;12.40;99.90;;;;;;5022211;28;20052;-77
2022/10/04 02:50:30;;;;;;;13.75;5.38;;;12.40;99.90;;;;;;5030396;28;20049;-77
2022/10/04 02:52:59;;;;;;;13.02;5.82;;;12.50;99.90;;;;;;5002448;28;20109;-77
2022/10/04 02:55:28;;;;;;;10.52;5.55;;;12.50;99.90;;;;;;5005931;28;20061;-77
2022/10/04 02:57:55;;;;;;;11.48;5.95;;;12.50;99.90;;;;;;5010488;28;20058;-77
2022/10/04 03:00:24;;;;;;;13.73;6.30;;;12.50;99.90;;;;;;5009240;28;20056;-77
2022/10/04 03:03:17;;;;;;;19.52;6.63;;;12.60;99.90;;;;;;5011701;28;20546;-77
2022/10/04 03:05:46;;;;;;;13.63;5.97;;;12.60;99.90;;;;;;5029864;28;20050;-77
2022/10/04 03:08:13;;;;;;;16.13;6.47;;;12.60;99.90;;;;;;5030099;28;20045;-77
2022/10/04 03:10:42;;;;;;;13.98;6.18;;;12.60;99.90;;;;;;5012697;28;20491;-77
2022/10/04 03:13:09;;;;;;;12.13;5.57;;;12.60;99.90;;;;;;4994212;28;20058;-77
2022/10/04 03:15:36;;;;;;;10.13;6.15;;;12.60;99.90;;;;;;4992222;28;20045;-77
2022/10/04 03:18:03;;;;;;;10.80;5.53;;;12.60;99.90;;;;;;5010010;28;20529;-77
2022/10/04 03:20:32;;;;;;;12.57;6.25;;;12.60;99.90;;;;;;5010105;28;20674;-77
2022/10/04 03:23:00;;;;;;;14.43;7.60;;;12.60;99.90;;;;;;5009903;28;20399;-77
2022/10/04 03:25:30;;;;;;;14.38;7.32;;;12.60;99.90;;;;;;5008973;28;20042;-77
2022/10/04 03:28:00;;;;;;;17.63;7.20;;;12.70;99.90;;;;;;5009691;28;20061;-77
2022/10/04 03:30:27;;;;;;;18.65;9.05;;;12.70;99.90;;;;;;5005332;28;20153;-77
2022/10/04 03:32:55;;;;;;;14.75;7.32;;;12.70;99.90;;;;;;5009851;28;20063;-77
2022/10/04 03:35:27;;;;;;;14.93;7.47;;;12.70;99.90;;;;;;5009135;28;20041;-77
2022/10/04 03:37:57;;;;;;;19.08;8.18;;;12.70;99.90;;;;;;5009626;28;20104;-77
2022/10/04 03:40:26;;;;;;;16.75;8.30;;;12.80;99.90;;;;;;5009605;28;20053;-77
2022/10/04 03:42:54;;;;;;;16.23;7.70;;;12.80;99.90;;;;;;5029454;28;20056;-77
2022/10/04 03:45:22;;;;;;;18.08;8.43;;;12.80;99.90;;;;;;5023800;28;20077;-77
2022/10/04 03:47:52;;;;;;;18.20;8.07;;;12.90;99.90;;;;;;5009513;28;20049;-77
2022/10/04 03:50:22;;;;;;;17.15;8.57;;;12.80;99.90;;;;;;5011019;28;20044;-77
2022/10/04 03:52:53;;;;;;;22.65;8.90;;;12.80;99.90;;;;;;5022256;28;20120;-77
2022/10/04 03:55:25;;;;;;;15.07;8.18;;;12.80;99.90;;;;;;5005375;28;20057;-77
2022/10/04 03:57:52;;;;;;;18.17;8.70;;;12.80;99.90;;;;;;5007859;28;20048;-77
2022/10/04 04:00:19;;;;;;;17.67;8.85;;;12.80;99.90;;;;;;5028907;28;20048;-77
2022/10/04 04:02:50;;;;;;;15.98;8.02;;;12.80;99.90;;;;;;5016012;28;20054;-77
2022/10/04 04:05:20;;;;;;;16.35;8.93;;;12.80;99.90;;;;;;5008118;28;20046;-77
2022/10/04 04:07:50;;;;;;;19.45;8.10;;;12.80;99.90;;;;;;5009215;28;20042;-77
2022/10/04 04:10:21;;;;;;;16.20;7.13;;;12.80;99.90;;;;;;5009415;28;20741;-77
2022/10/04 04:12:54;;;;;;;16.02;6.47;;;12.80;99.90;;;;;;5008053;28;20077;-77
2022/10/04 04:15:21;;;;;;;15.32;6.20;;;12.80;99.90;;;;;;5004310;28;20054;-77
2022/10/04 04:17:50;;;;;;;22.70;6.63;;;12.80;99.90;;;;;;5009420;28;20053;-77
2022/10/04 04:20:24;;;;;;;15.82;6.40;;;12.70;99.90;;;;;;5006995;28;20561;-77
2022/10/04 04:23:01;;;;;;;13.88;6.60;;;12.70;99.90;;;;;;5009140;28;20053;-77
2022/10/04 04:25:30;;;;;;;15.75;6.22;;;12.70;99.90;;;;;;5000024;28;20056;-77
2022/10/04 04:28:05;;;;;;;19.88;6.35;;;12.60;99.90;;;;;;4989705;28;20640;-77
2022/10/04 04:30:35;;;;;;;11.30;6.32;;;12.60;99.90;;;;;;4998720;28;20066;-77
2022/10/04 04:33:07;;;;;;;10.93;6.05;;;12.60;99.90;;;;;;5008433;28;20046;-77
2022/10/04 04:35:36;;;;;;;13.10;6.47;;;12.60;99.90;;;;;;5008751;28;20104;-77
2022/10/04 04:38:06;;;;;;;13.80;6.63;;;12.60;99.90;;;;;;4995442;28;20050;-77
2022/10/04 04:40:33;;;;;;;11.85;6.30;;;12.60;99.90;;;;;;5002002;28;20042;-77
2022/10/04 04:43:03;;;;;;;11.43;7.18;;;12.60;99.90;;;;;;5008146;28;20494;-77
2022/10/04 04:45:31;;;;;;;13.82;6.22;;;12.60;99.90;;;;;;5000396;28;20046;-77
2022/10/04 04:48:00;;;;;;;11.80;6.70;;;12.50;99.90;;;;;;5008870;28;20457;-77
2022/10/04 04:50:30;;;;;;;14.43;6.72;;;12.50;99.90;;;;;;5014065;28;20524;-77
2022/10/04 04:53:01;;;;;;;11.57;6.77;;;12.50;99.90;;;;;;5020553;28;20064;-77
2022/10/04 04:55:30;;;;;;;16.60;7.65;;;12.50;99.90;;;;;;5005231;28;20050;-77
2022/10/04 04:57:58;;;;;;;12.15;7.57;;;12.50;99.90;;;;;;5008404;28;20053;-77
2022/10/04 05:00:30;;;;;;;14.75;7.72;;;12.60;99.90;;;;;;5019084;28;20391;-77
2022/10/04 05:02:59;;;;;;;15.32;7.60;;;12.50;99.90;;;;;;5009052;28;20054;-77
2022/10/04 05:05:27;;;;;;;18.23;8.48;;;12.60;99.90;;;;;;5014679;28;20042;-77
2022/10/04 05:08:14;;;;;;;18.73;8.55;;;12.60;99.90;;;;;;5007274;28;20046;-77
2022/10/04 05:10:44;;;;;;;17.90;8.82;;;12.60;99.90;;;;;;5009895;28;20125;-77
2022/10/04 05:13:12;;;;;;;21.52;8.05;;;12.60;99.90;;;;;;5011093;28;20042;-77
2022/10/04 05:15:41;;;;;;;18.27;9.23;;;12.60;99.90;;;;;;5013068;28;20092;-77
2022/10/04 05:18:27;;;;;;;19.08;9.65;;;12.60;99.90;;;;;;5010680;28;20051;-77
2022/10/04 05:20:57;;;;;;;20.67;12.02;;;12.60;99.90;;;;;;5012351;28;20115;-77
2022/10/04 05:23:24;;;;;;;24.10;13.02;;;12.60;99.90;;;;;;5010819;28;20065;-77
2022/10/04 05:25:51;;;;;;;25.25;12.50;;;12.60;99.90;;;;;;5011206;28;20057;-77
2022/10/04 05:28:18;;;;;;;20.67;12.05;;;12.60;99.90;;;;;;5004497;28;20470;-77
2022/10/04 05:30:53;;;;;;;24.15;12.82;;;12.60;99.90;;;;;;4992581;28;20058;-77
2022/10/04 05:33:25;;;;;;;23.80;12.50;;;12.60;99.90;;;;;;5006917;28;20065;-77
2022/10/04 05:35:56;;;;;;;;;;;12.60;99.90;;;;;;5011689;28;20100;-77
2022/10/04 05:38:28;;;;;;;14.32;9.30;;;12.60;99.90;;;;;;5008666;28;19925;-77
2022/10/04 05:41:00;;;;;;;15.90;7.60;;;12.60;99.90;;;;;;5011447;28;20082;-77
2022/10/04 05:43:33;;;;;;;12.77;8.18;;;12.60;99.90;;;;;;5011800;28;20056;-77
2022/10/04 05:46:23;;;;;;;14.90;8.40;;;12.60;99.90;;;;;;4997180;28;20435;-77
2022/10/04 05:48:53;;;;;;;15.73;7.63;;;12.60;99.90;;;;;;5004378;28;20049;-77
2022/10/04 05:51:22;;;;;;;15.10;7.63;;;12.50;99.90;;;;;;5003805;28;20046;-77
2022/10/04 05:53:49;;;;;;;20.02;8.00;;;12.50;99.90;;;;;;5010936;28;20146;-77
2022/10/04 05:56:52;;;;;;;16.50;7.93;;;12.50;99.90;;;;;;5009739;28;20096;-77
2022/10/04 05:59:34;;;;;;;13.80;7.35;;;12.50;99.90;;;;;;4976434;28;20176;-77
2022/10/04 06:02:10;;;;;;;14.50;7.55;;;12.50;99.90;;;;;;5018612;28;20055;-77
2022/10/04 06:04:47;;;;;;;17.90;7.80;;;12.50;99.90;;;;;;5012945;28;20056;-77
2022/10/04 06:07:21;;;;;;;19.17;8.00;;;12.50;99.90;;;;;;5016245;28;20450;-80
2022/10/04 06:09:59;;;;;;;14.02;7.60;;;12.50;99.90;;;;;;5008289;28;20034;-80
2022/10/04 06:12:36;;;;;;;14.65;7.60;;;12.40;99.90;;;;;;5017281;28;20051;-81
2022/10/04 06:15:54;;;;;;;12.43;7.18;;;12.40;99.90;;;;;;5016568;28;20047;-79
2022/10/04 06:18:44;;;;;;;12.85;6.63;;;12.40;99.90;;;;;;4932682;29;20067;-79
2022/10/04 06:21:19;;;;;;;12.18;6.88;;;12.40;99.90;;;;;;4945574;29;20063;-80
2022/10/04 06:23:51;;;;;;;14.77;7.57;;;12.40;99.90;;;;;;4997274;28;20068;-80
2022/10/04 06:26:23;;;;;;;14.30;7.32;;;12.40;99.90;;;;;;5010536;28;20486;-81
2022/10/04 06:28:54;;;;;;;16.25;7.47;;;12.40;99.90;;;;;;5006721;28;20052;-81
2022/10/04 06:31:52;;;;;;;9.32;6.47;;;12.40;99.90;;;;;;5010506;28;20037;-81
2022/10/04 06:34:40;;;;;;;11.75;6.50;;;12.40;99.90;;;;;;5022385;28;20069;-80
2022/10/04 06:37:23;;;;;;;13.40;6.40;;;12.30;99.90;;;;;;5030714;28;20068;-80
2022/10/04 06:40:12;;;;;;;13.52;6.85;;;12.40;99.90;;;;;;5017197;28;20490;-81
2022/10/04 06:42:58;;;;;;;15.00;6.63;;;12.50;99.90;;;;;;5014283;28;20046;-81
2022/10/04 06:45:38;;;;;;;13.00;6.00;;;12.40;99.90;;;;;;5015888;28;20053;-81
2022/10/04 06:48:32;;;;;;;10.65;5.82;;;12.60;99.90;;;;;;5028472;28;20096;-81
2022/10/04 06:51:07;;;;;;;14.65;6.30;;;12.60;99.90;;;;;;5011147;28;20123;-80
2022/10/04 06:53:41;;;;;;;10.57;5.80;;;12.60;99.90;;;;;;5011384;28;20491;-80
2022/10/04 06:56:23;;;;;;;14.15;6.35;;;12.70;99.90;;;;;;5018823;28;20076;-81
2022/10/04 06:59:12;;;;;;;10.27;5.72;;;12.70;99.90;;;;;;5028280;28;20049;-80
2022/10/04 07:01:48;;;;;;;12.52;6.35;;;12.70;99.90;;;;;;5004095;28;20045;-81
2022/10/04 07:04:22;;;;;;;13.05;5.75;;;12.80;99.90;;;;;;5000814;28;20045;-81
2022/10/04 07:10:17;;;;;;;15.27;5.40;;;13.10;99.90;;;;;;5002246;28;20285;-81
2022/10/04 07:12:47;;;;;;;12.18;5.88;;;12.90;99.90;;;;;;5004433;28;20060;-81
2022/10/04 07:15:19;;;;;;;12.15;5.22;;;13.00;99.90;;;;;;5007571;28;20038;-81
2022/10/04 07:17:48;;;;;;;13.88;5.40;;;13.00;99.90;;;;;;5005760;28;20042;-81
2022/10/04 07:20:20;;;;;;;12.48;5.75;;;13.10;99.90;;;;;;5009712;28;20046;-81
2022/10/04 07:22:53;;;;;;;13.23;5.75;;;13.10;99.90;;;;;;5006129;28;20041;-81
2022/10/04 07:25:23;;;;;;;13.65;5.53;;;13.20;99.90;;;;;;5009836;28;20052;-81
2022/10/04 07:29:19;;;;;;;15.23;5.90;;;13.20;99.90;;;;;;5006118;28;20789;-81
2022/10/04 07:30:44;;;;;;;11.60;5.40;;;13.20;99.90;;;;;;5004628;28;20057;-81
2022/10/04 07:33:16;;;;;;;14.98;5.60;;;13.30;99.90;;;;;;5007939;28;20869;-81
2022/10/04 07:35:46;;;;;;;17.85;5.85;;;13.30;99.90;;;;;;5006392;28;20045;-81
2022/10/04 07:38:19;;;;;;;12.93;5.55;;;13.40;99.90;;;;;;5001347;28;20418;-81
2022/10/04 07:40:59;;;;;;;11.07;5.40;;;13.40;99.90;;;;;;5001074;28;20050;-81
2022/10/04 07:43:30;;;;;;;13.60;5.55;;;13.40;99.90;;;;;;5000360;28;20463;-80
2022/10/04 07:46:03;;;;;;;11.32;4.93;;;13.40;99.90;;;;;;5003353;28;20467;-81
2022/10/04 07:48:30;;;;;;;13.23;5.47;;;13.50;99.90;;;;;;5012232;28;20042;-81
2022/10/04 07:51:03;;;;;;;14.95;5.00;;;13.60;99.90;;;;;;5010964;28;20051;-81
2022/10/04 07:53:38;;;;;;;12.77;5.80;;;13.60;99.90;;;;;;4996917;28;20054;-81
2022/10/04 07:56:08;;;;;;;14.13;5.82;;;13.60;99.90;;;;;;5002860;28;20052;-81
2022/10/04 07:58:42;;;;;;;14.80;5.47;;;13.70;99.90;;;;;;5000551;28;20052;-81
2022/10/04 08:01:19;;;;;;;12.45;5.50;;;13.70;99.90;;;;;;5003759;28;20308;-81
2022/10/04 08:03:59;;;;;;;14.73;5.38;;;13.70;99.90;;;;;;5006479;28;20050;-81
2022/10/04 08:06:33;;;;;;;9.88;5.65;;;13.80;99.90;;;;;;5003413;28;20125;-81
2022/10/04 08:09:23;;;;;;;17.25;5.75;;;13.80;99.90;;;;;;5026486;28;20518;-81
2022/10/04 08:11:57;;;;;;;14.63;5.82;;;13.80;99.90;;;;;;5015655;28;20052;-81
2022/10/04 08:14:32;;;;;;;12.30;5.90;;;13.80;99.90;;;;;;5008453;28;20131;-81
2022/10/04 08:17:10;;;;;;;13.20;5.57;;;13.90;99.90;;;;;;5005732;28;20054;-81
2022/10/04 08:19:44;;;;;;;15.45;6.07;;;13.90;99.90;;;;;;5009074;28;20046;-81
2022/10/04 08:22:26;;;;;;;12.82;6.07;;;13.90;99.90;;;;;;5005087;28;20046;-81
2022/10/04 08:25:02;;;;;;;12.75;5.63;;;14.00;99.90;;;;;;5008264;28;20046;-81
2022/10/04 08:27:36;;;;;;;11.52;5.20;;;14.00;99.90;;;;;;5006135;28;20046;-81
2022/10/04 08:30:05;;;;;;;13.50;5.60;;;14.00;99.90;;;;;;5006791;28;20045;-81
2022/10/04 08:32:45;;;;;;;12.10;5.82;;;14.10;99.90;;;;;;5005381;28;20554;-81
2022/10/04 08:35:37;;;;;;;15.13;5.75;;;14.10;99.90;;;;;;5001287;28;20053;-81
2022/10/04 08:38:38;;;;;;;13.63;5.85;;;14.10;99.90;;;;;;5001180;28;20050;-81
2022/10/04 08:41:28;;;;;;;13.40;5.70;;;14.10;99.90;;;;;;5006924;28;20054;-81
2022/10/04 08:44:28;;;;;;;12.38;5.35;;;14.10;99.90;;;;;;5001819;28;20053;-81
2022/10/04 08:47:42;;;;;;;10.43;5.30;;;14.20;99.90;;;;;;5016602;28;20046;-81
2022/10/04 08:50:54;;;;;;;11.68;5.63;;;14.20;99.90;;;;;;5007015;28;20042;-81
2022/10/04 08:53:57;;;;;;;15.35;5.32;;;14.30;99.90;;;;;;5010213;28;20050;-81
2022/10/04 08:56:38;;;;;;;14.63;5.30;;;14.30;99.90;;;;;;5007696;28;20493;-81
2022/10/04 08:59:21;;;;;;;12.23;4.72;;;14.40;99.90;;;;;;5011016;28;20046;-81
2022/10/04 09:02:11;;;;;;;11.50;5.55;;;14.40;99.90;;;;;;5014735;28;20030;-81
2022/10/04 09:04:56;;;;;;;12.23;5.53;;;14.40;99.90;;;;;;5015124;28;20054;-81
2022/10/04 09:08:14;;;;;;;10.35;4.57;;;14.50;99.90;;;;;;5004476;28;20449;-81
2022/10/04 09:11:10;;;;;;;15.73;5.43;;;14.50;99.90;;;;;;4975044;28;20042;-80
2022/10/04 09:13:49;;;;;;;14.15;5.10;;;14.60;99.90;;;;;;5010888;28;20124;-81
2022/10/04 09:16:17;;;;;;;11.13;5.50;;;14.60;99.90;;;;;;5016960;28;20529;-81
2022/10/04 09:18:53;;;;;;;13.10;5.50;;;14.60;99.90;;;;;;5001933;28;20054;-81
2022/10/04 09:21:42;;;;;;;10.70;4.97;;;14.70;99.90;;;;;;5004678;28;20132;-81
2022/10/04 09:24:39;;;;;;;13.23;5.20;;;14.70;99.90;;;;;;5010961;28;20605;-81
2022/10/04 09:27:20;;;;;;;12.10;5.47;;;14.70;99.90;;;;;;5016478;28;20052;-81
2022/10/04 09:30:05;;;;;;;12.50;5.13;;;14.80;99.90;;;;;;5009463;28;20073;-81
2022/10/04 09:32:45;;;;;;;14.48;5.22;;;14.80;99.90;;;;;;5008079;28;20058;-81
2022/10/04 09:35:47;;;;;;;13.52;5.40;;;14.80;99.90;;;;;;5006671;28;20510;-81
2022/10/04 09:38:50;;;;;;;12.02;4.97;;;14.90;99.90;;;;;;5001366;28;20061;-81
2022/10/04 09:41:33;;;;;;;12.13;4.80;;;14.90;99.90;;;;;;4992374;28;20065;-81
2022/10/04 09:44:23;;;;;;;10.90;5.20;;;15.00;99.90;;;;;;5001541;28;20054;-81
2022/10/04 09:47:00;;;;;;;11.93;5.30;;;15.00;99.90;;;;;;5008153;28;20053;-81
2022/10/04 09:49:43;;;;;;;11.18;4.68;;;15.00;99.90;;;;;;5019506;28;20054;-81
2022/10/04 09:52:29;;;;;;;9.68;4.70;;;15.10;99.90;;;;;;5005842;28;20042;-81
2022/10/04 09:55:22;;;;;;;9.60;4.35;;;15.10;99.90;;;;;;5010584;28;20050;-81
2022/10/04 09:58:04;;;;;;;12.23;4.45;;;15.20;99.90;;;;;;5010871;28;20045;-79
2022/10/04 10:00:35;;;;;;;10.02;4.45;;;15.20;99.90;;;;;;5016211;28;20037;-81
2022/10/04 10:03:35;;;;;;;10.30;4.90;;;15.20;99.90;;;;;;5027087;28;20049;-81
2022/10/04 10:06:50;;;;;;;9.00;4.50;;;15.30;99.90;;;;;;5016386;28;20060;-81
2022/10/04 10:13:38;;;;;;;10.75;4.57;;;15.30;99.90;;;;;;4975698;28;20066;-81
2022/10/04 10:15:33;;;;;;;10.10;4.65;;;15.40;99.90;;;;;;4997128;28;20548;-81
2022/10/04 10:18:14;;;;;;;12.93;4.03;;;15.50;99.90;;;;;;5011518;28;20419;-81
2022/10/04 10:20:59;;;;;;;11.20;4.30;;;15.50;99.90;;;;;;5011361;28;20042;-81
2022/10/04 10:24:06;;;;;;;11.13;4.30;;;15.50;99.90;;;;;;5011531;28;20517;-81
2022/10/04 10:26:54;;;;;;;9.77;4.38;;;15.60;99.90;;;;;;4971260;28;20054;-81
2022/10/04 10:29:37;;;;;;;8.77;4.22;;;15.60;99.90;;;;;;4991637;28;20049;-81
2022/10/04 10:32:36;;;;;;;14.80;4.47;;;15.70;99.90;;;;;;4995076;28;20042;-81
2022/10/04 10:35:17;;;;;;;15.32;4.60;;;15.70;99.90;;;;;;5004695;28;20066;-81
2022/10/04 10:37:53;;;;;;;8.07;3.80;;;15.80;99.90;;;;;;5009253;28;20048;-81
2022/10/04 10:40:30;;;;;;;9.70;3.53;;;15.80;99.90;;;;;;5010837;28;20048;-81
2022/10/04 10:43:14;;;;;;;12.70;3.70;;;15.80;99.90;;;;;;5004227;28;20551;-81
2022/10/04 10:46:02;;;;;;;8.82;3.85;;;15.80;99.90;;;;;;5007991;28;20041;-81
2022/10/04 10:48:42;;;;;;;10.27;3.95;;;15.80;99.90;;;;;;4992639;28;20042;-81
2022/10/04 10:51:11;;;;;;;14.05;4.95;;;15.90;99.90;;;;;;5009302;28;20038;-81
2022/10/04 10:54:13;;;;;;;10.43;4.40;;;15.90;99.90;;;;;;5009339;28;20057;-81
2022/10/04 10:56:50;;;;;;;10.85;4.25;;;15.90;99.90;;;;;;5009784;28;20121;-81
2022/10/04 10:59:54;;;;;;;12.05;4.35;;;15.90;99.90;;;;;;5009417;28;20037;-81
2022/10/04 11:02:51;;;;;;;7.75;4.28;;;16.00;99.90;;;;;;5002416;28;20045;-81
2022/10/04 11:05:47;;;;;;;7.35;4.13;;;16.00;99.90;;;;;;5010318;28;20053;-81
2022/10/04 11:08:48;;;;;;;8.27;4.30;;;16.00;99.90;;;;;;5010498;28;20100;-81
2022/10/04 11:11:27;;;;;;;11.07;4.13;;;16.00;99.90;;;;;;5005995;28;20050;-81
2022/10/04 11:14:11;;;;;;;10.25;4.35;;;16.10;99.90;;;;;;5007817;28;20050;-81
2022/10/04 11:17:02;;;;;;;11.55;4.55;;;16.10;99.90;;;;;;5003121;28;20054;-81
2022/10/04 11:19:37;;;;;;;;;;;16.10;99.90;;;;;;5010065;28;20073;-81
2022/10/04 11:22:43;;;;;;;6.03;3.80;;;16.10;99.90;;;;;;5010115;28;19948;-81
2022/10/04 11:25:24;;;;;;;9.27;4.05;;;16.20;99.90;;;;;;5008690;28;20049;-81
2022/10/04 11:27:54;;;;;;;;;;;16.20;99.90;;;;;;5010754;28;20112;-81
2022/10/04 11:30:23;;;;;;;9.35;4.55;;;16.20;99.90;;;;;;5010042;28;19925;-81
2022/10/04 11:33:37;;;;;;;9.43;4.20;;;16.20;99.90;;;;;;5010138;28;20460;-81
2022/10/04 11:36:15;;;;;;;12.63;4.30;;;16.20;99.90;;;;;;5007993;28;20046;-81
2022/10/04 11:39:01;;;;;;;12.07;4.70;;;16.30;99.90;;;;;;5009342;28;20049;-81
2022/10/04 11:41:56;;;;;;;9.55;4.78;;;16.20;99.90;;;;;;5002802;28;20057;-81
2022/10/04 11:44:47;;;;;;;8.48;4.28;;;16.20;99.90;;;;;;4983466;28;20058;-81
2022/10/04 11:47:27;;;;;;;13.23;4.47;;;16.30;99.90;;;;;;5008207;28;20108;-81
2022/10/04 11:50:03;;;;;;;8.02;3.75;;;16.30;99.90;;;;;;5009901;28;20059;-81
2022/10/04 11:53:22;;;;;;;8.98;3.88;;;16.40;99.90;;;;;;5009719;28;20038;-81
2022/10/04 11:56:09;;;;;;;8.70;3.90;;;16.40;99.90;;;;;;4981371;28;20125;-81
2022/10/04 11:58:48;;;;;;;12.75;4.20;;;16.40;99.90;;;;;;4981586;28;20046;-81
2022/10/04 12:02:01;;;;;;;9.65;3.70;;;16.40;99.90;;;;;;5004765;28;20054;-80
2022/10/04 12:04:53;;;;;;;9.05;4.00;;;16.40;99.90;;;;;;4990059;28;20084;-81
2022/10/04 12:07:35;;;;;;;9.52;3.92;;;16.50;99.90;;;;;;5006404;28;20049;-81
2022/10/04 12:10:17;;;;;;;8.88;3.92;;;16.50;99.90;;;;;;5009340;28;20049;-81
2022/10/04 12:13:05;;;;;;;9.27;3.60;;;16.50;99.90;;;;;;5009367;28;20057;-81
2022/10/04 12:15:50;;;;;;;10.20;3.53;;;16.50;99.90;;;;;;5007091;28;20399;-81
2022/10/04 12:18:40;;;;;;;8.52;3.65;;;16.50;99.90;;;;;;5021652;28;20073;-81
2022/10/04 12:21:37;;;;;;;8.85;3.42;;;16.50;99.90;;;;;;5009321;28;20049;-81
2022/10/04 12:24:21;;;;;;;7.72;4.18;;;16.50;99.90;;;;;;5004415;28;20058;-81
2022/10/04 12:27:20;;;;;;;6.55;3.17;;;16.50;99.90;;;;;;5007665;28;20050;-81
2022/10/04 12:30:19;;;;;;;7.68;3.75;;;16.50;99.90;;;;;;5004873;28;20100;-81
2022/10/04 12:32:54;;;;;;;8.88;3.45;;;16.50;99.90;;;;;;5009240;28;20403;-81
2022/10/04 12:35:28;;;;;;;6.75;3.42;;;16.60;99.90;;;;;;5008953;28;20052;-81
2022/10/04 12:38:15;;;;;;;7.80;3.95;;;16.60;99.90;;;;;;5005705;28;20057;-81
2022/10/04 12:40:44;;;;;;;7.05;3.72;;;16.60;99.90;;;;;;5009149;28;20052;-80
2022/10/04 12:43:17;;;;;;;6.93;3.85;;;16.60;99.90;;;;;;5009924;28;20121;-81
2022/10/04 12:45:55;;;;;;;9.10;3.67;;;16.60;99.90;;;;;;5008385;28;20068;-81
2022/10/04 12:48:42;;;;;;;9.27;4.22;;;16.60;99.90;;;;;;5000824;28;20083;-81
2022/10/04 12:51:21;;;;;;;10.48;3.90;;;16.70;99.90;;;;;;5007528;28;20052;-81
2022/10/04 12:53:52;;;;;;;9.27;3.50;;;16.60;99.90;;;;;;5008984;28;20037;-81
2022/10/04 12:56:37;;;;;;;11.57;3.83;;;16.60;99.90;;;;;;5008090;28;20125;-81
2022/10/04 12:59:16;;;;;;;8.20;3.90;;;16.60;99.90;;;;;;5008846;28;20050;-81
2022/10/04 13:01:51;;;;;;;8.20;3.92;;;16.70;99.90;;;;;;5008956;28;20046;-81
2022/10/04 13:04:39;;;;;;;6.88;3.92;;;16.60;99.90;;;;;;5008819;28;20056;-81
2022/10/04 13:07:22;;;;;;;10.05;3.80;;;16.70;99.90;;;;;;5002665;28;20065;-81
2022/10/04 13:09:58;;;;;;;8.63;4.10;;;16.70;99.90;;;;;;5007392;28;20046;-81
2022/10/04 13:12:33;;;;;;;6.78;4.05;;;16.70;99.90;;;;;;5001253;28;20042;-80
2022/10/04 13:15:24;;;;;;;6.88;3.70;;;16.70;99.90;;;;;;5006440;28;20060;-81
2022/10/04 13:17:59;;;;;;;9.35;3.58;;;16.70;99.90;;;;;;5007433;28;20069;-81
2022/10/04 13:20:45;;;;;;;8.25;3.75;;;16.70;99.90;;;;;;5008794;28;20050;-81
2022/10/04 13:23:21;;;;;;;6.75;3.33;;;16.70;99.90;;;;;;5008634;28;20045;-81
2022/10/04 13:26:09;;;;;;;7.93;3.55;;;16.70;99.90;;;;;;5006916;28;20732;-81
2022/10/04 13:28:43;;;;;;;7.50;3.28;;;16.70;99.90;;;;;;5002777;28;20046;-81
2022/10/04 13:31:15;;;;;;;10.65;3.92;;;16.70;99.90;;;;;;5007088;28;20596;-81
2022/10/04 13:33:48;;;;;;;6.88;3.42;;;16.70;99.90;;;;;;5007159;28;20057;-81
2022/10/04 13:36:21;;;;;;;6.95;3.50;;;16.80;99.90;;;;;;5009322;28;20050;-81
2022/10/04 13:39:19;;;;;;;7.60;3.58;;;16.70;99.90;;;;;;5012338;28;20049;-81
2022/10/04 13:42:11;;;;;;;9.25;3.47;;;16.80;99.90;;;;;;5010131;28;20048;-81
2022/10/04 13:44:57;;;;;;;9.50;3.75;;;16.80;99.90;;;;;;5006121;28;20069;-81
2022/10/04 13:47:51;;;;;;;6.68;3.47;;;16.80;99.90;;;;;;5012064;28;20474;-81